Time;durP1;ratioP1;P1;durP2;ratioP2;P2;SDS_P1;SDS_P2;PMS_P1;PMS_P2;Temp;Humidity;BMP_temperature;BMP_pressure;BME280_temperature;BME280_humidity;BME280_pressure;Samples;Min_cycle;Max_cycle;Signal;HPM_P1;HPM_P2
2019/07/04 00:01:53;;;;;;;2.8;1.1;;;;;;;31.74;21.82227;1008.546;;;;
2019/07/04 00:04:18;;;;;;;1.4;1.1;;;;;;;31.73;21.8457;1008.568;;;;
2019/07/04 00:07:37;;;;;;;2.9;1;;;;;;;31.73;21.87109;1008.587;;;;
2019/07/04 00:10:56;;;;;;;2;1;;;;;;;31.72;21.89551;1008.568;;;;
2019/07/04 00:13:21;;;;;;;2;1.2;;;;;;;31.73;21.89551;1008.562;;;;
2019/07/04 00:15:47;;;;;;;2.3;1.2;;;;;;;31.74;21.9082;1008.565;;;;
2019/07/04 00:18:11;;;;;;;3.8;1.3;;;;;;;31.73;21.94434;1008.576;;;;
2019/07/04 00:20:36;;;;;;;2.2;1.1;;;;;;;31.73;21.96875;1008.595;;;;
2019/07/04 00:23:55;;;;;;;4.3;1.1;;;;;;;31.73;21.99316;1008.649;;;;
2019/07/04 00:26:21;;;;;;;2.1;1.2;;;;;;;31.73;22.03027;1008.733;;;;
2019/07/04 00:28:46;;;;;;;2.3;1.2;;;;;;;31.73;22.05469;1008.733;;;;
2019/07/04 00:31:12;;;;;;;2.9;1.2;;;;;;;31.73;22.05469;1008.718;;;;
2019/07/04 00:33:37;;;;;;;1.7;1;;;;;;;31.73;22.06738;1008.764;;;;
2019/07/04 00:36:02;;;;;;;1.9;1;;;;;;;31.72;22.0918;1008.736;;;;
2019/07/04 00:38:27;;;;;;;2.4;1;;;;;;;31.72;22.12793;1008.724;;;;
2019/07/04 00:40:52;;;;;;;3.2;1.2;;;;;;;31.72;22.12793;1008.753;;;;
2019/07/04 00:43:18;;;;;;;3;1.2;;;;;;;31.71;22.15234;1008.755;;;;
2019/07/04 00:45:43;;;;;;;2.8;1.2;;;;;;;31.7;22.17676;1008.759;;;;
2019/07/04 00:48:09;;;;;;;2.5;1.2;;;;;;;31.7;22.18945;1008.713;;;;
2019/07/04 00:50:34;;;;;;;4.2;1.1;;;;;;;31.7;22.21387;1008.735;;;;
2019/07/04 00:53:53;;;;;;;3.2;1.2;;;;;;;31.69;22.21289;1008.702;;;;
2019/07/04 00:58:06;;;;;;;2.9;1.1;;;;;;;31.67;22.2373;1008.672;;;;
2019/07/04 01:00:31;;;;;;;3.1;1.1;;;;;;;31.67;22.26074;1008.658;;;;
2019/07/04 01:02:56;;;;;;;2.7;1.2;;;;;;;31.66;22.24902;1008.665;;;;
2019/07/04 01:05:22;;;;;;;1.6;1.1;;;;;;;31.65;22.25977;1008.674;;;;
2019/07/04 01:07:47;;;;;;;1.7;0.9;;;;;;;31.66;22.24902;1008.681;;;;
2019/07/04 01:10:13;;;;;;;5.5;1.4;;;;;;;31.66;22.23633;1008.64;;;;
2019/07/04 01:12:38;;;;;;;2.4;1.3;;;;;;;31.66;22.23633;1008.693;;;;
2019/07/04 01:15:03;;;;;;;1.8;1.2;;;;;;;31.65;22.22363;1008.659;;;;
2019/07/04 01:17:29;;;;;;;2.8;1.4;;;;;;;31.64;22.23535;1008.619;;;;
2019/07/04 01:20:47;;;;;;;3;1.2;;;;;;;31.64;22.21094;1008.625;;;;
2019/07/04 01:23:12;;;;;;;2.2;1.2;;;;;;;31.63;22.20996;1008.572;;;;
2019/07/04 01:25:38;;;;;;;5.5;1.2;;;;;;;31.63;22.19824;1008.559;;;;
2019/07/04 01:28:03;;;;;;;2.4;1.3;;;;;;;31.63;22.18555;1008.586;;;;
2019/07/04 01:30:29;;;;;;;3.2;1.3;;;;;;;31.62;22.19727;1008.566;;;;
2019/07/04 01:32:54;;;;;;;2.1;1.1;;;;;;;31.61;22.19629;1008.578;;;;
2019/07/04 01:35:20;;;;;;;2.1;1;;;;;;;31.6;22.20898;1008.569;;;;
2019/07/04 01:37:46;;;;;;;2.2;1.2;;;;;;;31.59;22.20801;1008.536;;;;
2019/07/04 01:41:04;;;;;;;2.6;1.2;;;;;;;31.57;22.21973;1008.529;;;;
2019/07/04 01:43:30;;;;;;;2.2;1.2;;;;;;;31.56;22.21875;1008.535;;;;
2019/07/04 01:46:49;;;;;;;4.6;1.3;;;;;;;31.54;22.22949;1008.49;;;;
2019/07/04 01:50:08;;;;;;;2.8;1.1;;;;;;;31.53;22.22949;1008.48;;;;
2019/07/04 01:52:33;;;;;;;3.9;1.6;;;;;;;31.52;22.24219;1008.511;;;;
2019/07/04 01:54:59;;;;;;;2.5;1.2;;;;;;;31.51;22.26563;1008.552;;;;
2019/07/04 01:57:24;;;;;;;3.3;1.3;;;;;;;31.51;22.25293;1008.509;;;;
2019/07/04 01:59:50;;;;;;;2.6;1.2;;;;;;;31.51;22.24121;1008.517;;;;
2019/07/04 02:03:09;;;;;;;2.3;1.1;;;;;;;31.5;22.25293;1008.519;;;;
2019/07/04 02:06:28;;;;;;;2.2;1;;;;;;;31.49;22.25195;1008.498;;;;
2019/07/04 02:08:53;;;;;;;1.7;1;;;;;;;31.48;22.26465;1008.477;;;;
2019/07/04 02:11:19;;;;;;;1.9;1.1;;;;;;;31.49;22.25195;1008.525;;;;
2019/07/04 02:13:44;;;;;;;2.3;1.2;;;;;;;31.48;22.25195;1008.587;;;;
2019/07/04 02:16:10;;;;;;;2.6;1.1;;;;;;;31.47;22.27539;1008.549;;;;
2019/07/04 02:18:35;;;;;;;4;1.3;;;;;;;31.47;22.28809;1008.574;;;;
2019/07/04 02:21:01;;;;;;;3.4;1.4;;;;;;;31.46;22.28711;1008.508;;;;
2019/07/04 02:21:12;;;;;;;4.2;1.4;;;;;;;31.45;22.28711;1008.469;;;;
2019/07/04 02:23:38;;;;;;;2;1.2;;;;;;;31.46;22.2998;1008.526;;;;
2019/07/04 02:26:04;;;;;;;2.8;1.1;;;;;;;31.44;22.31152;1008.549;;;;
2019/07/04 02:28:30;;;;;;;2.9;1.1;;;;;;;31.44;22.32422;1008.515;;;;
2019/07/04 02:30:54;;;;;;;2.5;1.2;;;;;;;31.45;22.32422;1008.525;;;;
2019/07/04 02:33:20;;;;;;;4;1.2;;;;;;;31.44;22.33594;1008.55;;;;
2019/07/04 02:33:50;;;;;;;2.7;1.2;;;;;;;31.44;22.33594;1008.557;;;;
2019/07/04 02:36:15;;;;;;;2.1;1.1;;;;;;;31.41;22.37109;1008.526;;;;
2019/07/04 02:36:25;;;;;;;1.5;0.9;;;;;;;31.41;22.37207;1008.554;;;;
2019/07/04 02:38:49;;;;;;;4.8;1.3;;;;;;;31.41;22.37109;1008.543;;;;
2019/07/04 02:41:16;;;;;;;2;1.1;;;;;;;31.4;22.39551;1008.491;;;;
2019/07/04 02:41:29;;;;;;;1.8;1.1;;;;;;;31.39;22.40723;1008.501;;;;
2019/07/04 02:43:55;;;;;;;3.1;1.1;;;;;;;31.4;22.38281;1008.465;;;;
2019/07/04 02:46:20;;;;;;;3.3;1.3;;;;;;;31.39;22.40723;1008.491;;;;
2019/07/04 02:48:45;;;;;;;2.3;1.1;;;;;;;31.39;22.43164;1008.501;;;;
2019/07/04 02:51:11;;;;;;;1.9;1.1;;;;;;;31.38;22.44336;1008.499;;;;
2019/07/04 02:54:30;;;;;;;2.2;1;;;;;;;31.37;22.46777;1008.503;;;;
2019/07/04 02:57:49;;;;;;;3;1.2;;;;;;;31.36;22.47949;1008.473;;;;
2019/07/04 03:00:14;;;;;;;3.2;1.4;;;;;;;31.36;22.47949;1008.498;;;;
2019/07/04 03:02:40;;;;;;;2.6;1;;;;;;;31.35;22.49121;1008.455;;;;
2019/07/04 03:05:05;;;;;;;2.2;1;;;;;;;31.34;22.51563;1008.476;;;;
2019/07/04 03:07:31;;;;;;;2.4;1.1;;;;;;;31.33;22.52734;1008.473;;;;
2019/07/04 03:09:56;;;;;;;2.8;1.4;;;;;;;31.33;22.55176;1008.479;;;;
2019/07/04 03:12:22;;;;;;;2.5;1.2;;;;;;;31.32;22.56348;1008.499;;;;
2019/07/04 03:14:47;;;;;;;3;1.2;;;;;;;31.32;22.58789;1008.504;;;;
2019/07/04 03:17:12;;;;;;;2.4;1.2;;;;;;;31.32;22.57617;1008.49;;;;
2019/07/04 03:19:38;;;;;;;3.2;1.1;;;;;;;31.32;22.60059;1008.465;;;;
2019/07/04 03:22:03;;;;;;;2.8;1;;;;;;;31.32;22.58789;1008.461;;;;
2019/07/04 03:24:28;;;;;;;4.5;1.2;;;;;;;31.32;22.6123;1008.472;;;;
2019/07/04 03:25:17;;;;;;;2.8;1;;;;;;;31.33;22.625;1008.5;;;;
2019/07/04 03:27:43;;;;;;;3.2;1.2;;;;;;;31.33;22.6377;1008.46;;;;
2019/07/04 03:31:01;;;;;;;4.3;1.1;;;;;;;31.33;22.65039;1008.467;;;;
2019/07/04 03:33:27;;;;;;;3;1.4;;;;;;;31.33;22.66309;1008.54;;;;
2019/07/04 03:35:52;;;;;;;2.6;1.2;;;;;;;31.35;22.66309;1008.576;;;;
2019/07/04 03:38:17;;;;;;;2;1.3;;;;;;;31.35;22.66309;1008.604;;;;
2019/07/04 03:41:36;;;;;;;3.8;1.4;;;;;;;31.36;22.67676;1008.621;;;;
2019/07/04 03:44:02;;;;;;;4.2;1.3;;;;;;;31.37;22.67676;1008.604;;;;
2019/07/04 03:46:27;;;;;;;3.7;1.2;;;;;;;31.37;22.68848;1008.615;;;;
2019/07/04 03:48:52;;;;;;;3.2;1.2;;;;;;;31.38;22.70117;1008.62;;;;
2019/07/04 03:51:18;;;;;;;2.8;1;;;;;;;31.38;22.67676;1008.632;;;;
2019/07/04 03:53:43;;;;;;;4.2;1.6;;;;;;;31.38;22.67676;1008.621;;;;
2019/07/04 03:56:09;;;;;;;4.4;1.2;;;;;;;31.38;22.67676;1008.613;;;;
2019/07/04 03:58:34;;;;;;;3.6;1.2;;;;;;;31.39;22.67773;1008.625;;;;
2019/07/04 03:59:00;;;;;;;3.4;1.3;;;;;;;31.4;22.67773;1008.581;;;;
2019/07/04 04:01:26;;;;;;;2.5;1.3;;;;;;;31.39;22.66504;1008.604;;;;
2019/07/04 04:03:51;;;;;;;3.6;1.5;;;;;;;31.39;22.67773;1008.64;;;;
2019/07/04 04:07:10;;;;;;;3.7;1.2;;;;;;;31.38;22.70117;1008.635;;;;
2019/07/04 04:10:28;;;;;;;2.8;1;;;;;;;31.36;22.7373;1008.666;;;;
2019/07/04 04:12:54;;;;;;;2.1;1.2;;;;;;;31.37;22.7373;1008.707;;;;
2019/07/04 04:15:20;;;;;;;2.3;1.1;;;;;;;31.34;22.76074;1008.74;;;;
2019/07/04 04:17:45;;;;;;;2.1;1.1;;;;;;;31.34;22.73633;1008.752;;;;
2019/07/04 04:21:04;;;;;;;3.2;1.1;;;;;;;31.34;22.73633;1008.78;;;;
2019/07/04 04:23:29;;;;;;;3.3;1.3;;;;;;;31.34;22.73633;1008.765;;;;
2019/07/04 04:25:54;;;;;;;1.5;1;;;;;;;31.34;22.69922;1008.76;;;;
2019/07/04 04:28:19;;;;;;;1.9;1;;;;;;;31.34;22.6748;1008.827;;;;
2019/07/04 04:30:45;;;;;;;2.8;1;;;;;;;31.34;22.6748;1008.835;;;;
2019/07/04 04:34:04;;;;;;;3.9;1.4;;;;;;;31.33;22.6748;1008.908;;;;
2019/07/04 04:36:30;;;;;;;3.8;1.5;;;;;;;31.33;22.69922;1008.951;;;;
2019/07/04 04:38:55;;;;;;;3.4;1.1;;;;;;;31.34;22.69922;1008.906;;;;
2019/07/04 04:41:21;;;;;;;3.7;1.2;;;;;;;31.35;22.6875;1008.905;;;;
2019/07/04 04:43:46;;;;;;;3.1;1.3;;;;;;;31.36;22.71289;1008.87;;;;
2019/07/04 04:46:12;;;;;;;1.9;0.9;;;;;;;31.38;22.71387;1008.85;;;;
2019/07/04 04:48:37;;;;;;;3.2;1.3;;;;;;;31.39;22.72656;1008.873;;;;
2019/07/04 04:51:56;;;;;;;4.1;1.4;;;;;;;31.42;22.71582;1008.938;;;;
2019/07/04 04:54:20;;;;;;;4.4;1.3;;;;;;;31.45;22.70508;1008.948;;;;
2019/07/04 04:56:46;;;;;;;3.2;1.3;;;;;;;31.46;22.70508;1008.938;;;;
2019/07/04 04:59:11;;;;;;;4.7;1.3;;;;;;;31.47;22.71875;1008.966;;;;
2019/07/04 05:01:36;;;;;;;2.9;1.4;;;;;;;31.48;22.70703;1008.98;;;;
2019/07/04 05:04:02;;;;;;;2.2;1;;;;;;;31.5;22.71973;1009;;;;
2019/07/04 05:06:27;;;;;;;3.5;1.3;;;;;;;31.5;22.71973;1009.05;;;;
2019/07/04 05:07:17;;;;;;;2.7;1.2;;;;;;;31.5;22.71973;1009.081;;;;
2019/07/04 05:09:42;;;;;;;3.7;1.4;;;;;;;31.51;22.69531;1009.133;;;;
2019/07/04 05:12:08;;;;;;;3.4;1.2;;;;;;;31.53;22.65918;1009.145;;;;
2019/07/04 05:14:34;;;;;;;2.1;1;;;;;;;31.55;22.62402;1009.187;;;;
2019/07/04 05:16:59;;;;;;;4.9;1.5;;;;;;;31.57;22.57617;1009.243;;;;
2019/07/04 05:19:25;;;;;;;3;1.3;;;;;;;31.59;22.51563;1009.261;;;;
2019/07/04 05:21:51;;;;;;;2.6;1.2;;;;;;;31.61;22.44238;1009.285;;;;
2019/07/04 05:24:15;;;;;;;2.7;1.2;;;;;;;31.63;22.38184;1009.239;;;;
2019/07/04 05:24:57;;;;;;;3.2;1.2;;;;;;;31.62;22.36914;1009.267;;;;
2019/07/04 05:27:23;;;;;;;2.9;1.2;;;;;;;31.64;22.3457;1009.287;;;;
2019/07/04 05:29:48;;;;;;;3.3;1.2;;;;;;;31.65;22.27246;1009.292;;;;
2019/07/04 05:33:07;;;;;;;4.4;1.4;;;;;;;31.66;22.08887;1009.249;;;;
2019/07/04 05:35:32;;;;;;;5.7;1.1;;;;;;;31.65;22.00195;1009.235;;;;
2019/07/04 05:37:57;;;;;;;4.4;1;;;;;;;31.66;21.92871;1009.213;;;;
2019/07/04 05:40:23;;;;;;;3;1.1;;;;;;;31.65;21.83008;1009.16;;;;
2019/07/04 05:42:48;;;;;;;4;1;;;;;;;31.67;21.75684;1009.152;;;;
2019/07/04 05:45:13;;;;;;;3.3;1.2;;;;;;;31.66;21.73242;1009.194;;;;
2019/07/04 05:48:03;;;;;;;3.2;1.1;;;;;;;31.67;21.69629;1009.199;;;;
2019/07/04 05:50:28;;;;;;;5.3;1.1;;;;;;;31.68;21.65918;1009.152;;;;
2019/07/04 05:50:44;;;;;;;5.4;1.2;;;;;;;31.68;21.62305;1009.17;;;;
2019/07/04 05:53:10;;;;;;;2.8;1.2;;;;;;;31.7;21.5498;1009.17;;;;
2019/07/04 05:55:35;;;;;;;2.6;1.2;;;;;;;31.7;21.48828;1009.129;;;;
2019/07/04 05:58:00;;;;;;;5.1;1.3;;;;;;;31.7;21.47559;1009.152;;;;
2019/07/04 06:00:26;;;;;;;4.6;1.2;;;;;;;31.72;21.43945;1009.172;;;;
2019/07/04 06:02:51;;;;;;;3.1;1.1;;;;;;;31.72;21.40332;1009.163;;;;
2019/07/04 06:05:17;;;;;;;4.8;1.4;;;;;;;31.73;21.36719;1009.147;;;;
2019/07/04 06:07:42;;;;;;;4.3;1.1;;;;;;;31.73;21.31738;1009.136;;;;
2019/07/04 06:10:07;;;;;;;6.4;1.2;;;;;;;31.73;21.28027;1009.128;;;;
2019/07/04 06:12:32;;;;;;;2.9;1.1;;;;;;;31.73;21.25586;1009.148;;;;
2019/07/04 06:15:51;;;;;;;2.8;1;;;;;;;31.74;21.19531;1009.123;;;;
2019/07/04 06:18:17;;;;;;;2.6;1.1;;;;;;;31.75;21.13379;1009.12;;;;
2019/07/04 06:20:41;;;;;;;3.3;1;;;;;;;31.76;21.12207;1009.19;;;;
2019/07/04 06:23:07;;;;;;;3;1.2;;;;;;;31.76;21.13477;1009.194;;;;
2019/07/04 06:25:32;;;;;;;4.5;1.5;;;;;;;31.78;21.09863;1009.213;;;;
2019/07/04 06:28:51;;;;;;;3.4;1.1;;;;;;;31.78;21.0127;1009.254;;;;
2019/07/04 06:32:10;;;;;;;3.1;1.3;;;;;;;31.79;20.92676;1009.258;;;;
2019/07/04 06:34:36;;;;;;;2.5;1;;;;;;;31.78;20.82813;1009.24;;;;
2019/07/04 06:37:01;;;;;;;5.4;1.1;;;;;;;31.78;20.71777;1009.212;;;;
2019/07/04 06:39:26;;;;;;;4.5;1;;;;;;;31.77;20.58203;1009.275;;;;
2019/07/04 06:41:51;;;;;;;5.5;1.2;;;;;;;31.73;20.56738;1009.28;;;;
2019/07/04 06:44:16;;;;;;;5.5;1.2;;;;;;;31.71;20.56738;1009.277;;;;
2019/07/04 06:46:42;;;;;;;3;1.4;;;;;;;31.7;20.57813;1009.333;;;;
2019/07/04 06:50:00;;;;;;;5.3;1.2;;;;;;;31.68;20.62695;1009.314;;;;
2019/07/04 06:52:25;;;;;;;3.5;1.2;;;;;;;31.66;20.62598;1009.312;;;;
2019/07/04 06:54:50;;;;;;;5;1.1;;;;;;;31.66;20.6377;1009.354;;;;
2019/07/04 06:57:16;;;;;;;6.9;1.3;;;;;;;31.66;20.6377;1009.378;;;;
2019/07/04 06:59:41;;;;;;;5.1;1;;;;;;;31.64;20.66211;1009.357;;;;
2019/07/04 07:02:06;;;;;;;5.1;1.1;;;;;;;31.64;20.68652;1009.348;;;;
2019/07/04 07:02:20;;;;;;;4.2;1.3;;;;;;;31.64;20.69824;1009.344;;;;
2019/07/04 07:04:45;;;;;;;4.9;1;;;;;;;31.64;20.71094;1009.314;;;;
2019/07/04 07:08:04;;;;;;;4.5;1.5;;;;;;;31.64;20.73633;1009.286;;;;
2019/07/04 07:10:29;;;;;;;3.4;1.3;;;;;;;31.66;20.74902;1009.271;;;;
2019/07/04 07:12:55;;;;;;;5.8;1.2;;;;;;;31.66;20.78613;1009.294;;;;
2019/07/04 07:15:20;;;;;;;2.9;1.2;;;;;;;31.65;20.80957;1009.277;;;;
2019/07/04 07:15:52;;;;;;;6.4;1.3;;;;;;;31.65;20.80957;1009.28;;;;
2019/07/04 07:18:17;;;;;;;6.1;1.5;;;;;;;31.64;20.8457;1009.306;;;;
2019/07/04 07:20:42;;;;;;;6;1.4;;;;;;;31.65;20.80957;1009.309;;;;
2019/07/04 07:23:08;;;;;;;5.2;1.2;;;;;;;31.62;20.82031;1009.308;;;;
2019/07/04 07:25:34;;;;;;;4;1;;;;;;;31.63;20.82031;1009.29;;;;
2019/07/04 07:27:59;;;;;;;3.4;1.1;;;;;;;31.61;20.85645;1009.28;;;;
2019/07/04 07:31:18;;;;;;;3.5;1;;;;;;;31.63;20.88184;1009.285;;;;
2019/07/04 07:33:43;;;;;;;3.6;1.2;;;;;;;31.63;20.89453;1009.316;;;;
2019/07/04 07:36:08;;;;;;;6.2;1.2;;;;;;;31.64;20.91992;1009.324;;;;
2019/07/04 07:38:34;;;;;;;5;1.2;;;;;;;31.64;20.94531;1009.305;;;;
2019/07/04 07:38:41;;;;;;;4.4;1.1;;;;;;;31.64;20.93262;1009.302;;;;
2019/07/04 07:41:07;;;;;;;3.5;1.2;;;;;;;31.67;20.95801;1009.269;;;;
2019/07/04 07:43:32;;;;;;;4.2;1.3;;;;;;;31.68;20.9707;1009.267;;;;
2019/07/04 07:45:57;;;;;;;3.4;1.1;;;;;;;31.69;20.97168;1009.229;;;;
2019/07/04 07:49:17;;;;;;;3.1;0.9;;;;;;;31.7;20.98438;1009.233;;;;
2019/07/04 07:51:42;;;;;;;3.5;1.1;;;;;;;31.71;20.98438;1009.214;;;;
2019/07/04 07:54:08;;;;;;;6.5;1.2;;;;;;;31.72;20.98535;1009.154;;;;
2019/07/04 07:56:33;;;;;;;2.7;1.2;;;;;;;31.74;20.96191;1009.133;;;;
2019/07/04 07:58:58;;;;;;;5.5;1.2;;;;;;;31.74;20.96191;1009.117;;;;
2019/07/04 08:01:23;;;;;;;3.2;1;;;;;;;31.74;20.94922;1009.156;;;;
2019/07/04 08:03:49;;;;;;;3.7;1.1;;;;;;;31.75;20.9502;1009.176;;;;
2019/07/04 08:06:15;;;;;;;4.9;1.1;;;;;;;31.76;20.9502;1009.248;;;;
2019/07/04 08:08:40;;;;;;;3.2;1.2;;;;;;;31.78;20.90137;1009.179;;;;
2019/07/04 08:11:05;;;;;;;3.6;1;;;;;;;31.78;20.92676;1009.232;;;;
2019/07/04 08:14:24;;;;;;;3.2;1.1;;;;;;;31.8;20.92676;1009.186;;;;
2019/07/04 08:16:49;;;;;;;3.5;1.3;;;;;;;31.81;20.93945;1009.268;;;;
2019/07/04 08:19:15;;;;;;;6.3;1.2;;;;;;;31.83;20.94141;1009.205;;;;
2019/07/04 08:21:40;;;;;;;2.9;1.1;;;;;;;31.85;20.91699;1009.243;;;;
2019/07/04 08:24:06;;;;;;;2.9;1.1;;;;;;;31.85;20.91699;1009.18;;;;
2019/07/04 08:26:31;;;;;;;4.8;1.1;;;;;;;31.86;20.89355;1009.147;;;;
2019/07/04 08:26:38;;;;;;;6.1;1.2;;;;;;;31.86;20.89355;1009.173;;;;
2019/07/04 08:29:03;;;;;;;3.1;0.9;;;;;;;31.87;20.91895;1009.141;;;;
2019/07/04 08:31:29;;;;;;;3.2;1.1;;;;;;;31.87;20.93066;1009.111;;;;
2019/07/04 08:33:54;;;;;;;2.9;1.1;;;;;;;31.87;20.93066;1009.114;;;;
2019/07/04 08:36:19;;;;;;;3.6;1.2;;;;;;;31.86;20.94238;1009.071;;;;
2019/07/04 08:38:45;;;;;;;2.4;1.1;;;;;;;31.86;20.94238;1009.107;;;;
2019/07/04 08:41:10;;;;;;;6.7;1.6;;;;;;;31.86;20.94238;1009.113;;;;
2019/07/04 08:43:35;;;;;;;3.5;1.3;;;;;;;31.86;20.95508;1009.078;;;;
2019/07/04 08:46:01;;;;;;;4.4;1.3;;;;;;;31.87;20.95508;1009.076;;;;
2019/07/04 08:48:26;;;;;;;2.8;1.1;;;;;;;31.87;20.97949;1009.055;;;;
2019/07/04 08:50:52;;;;;;;3.1;1.3;;;;;;;31.88;21.0166;1009.067;;;;
2019/07/04 08:53:17;;;;;;;3;1;;;;;;;31.89;21.06738;1009.082;;;;
2019/07/04 08:55:42;;;;;;;6.4;1.4;;;;;;;31.89;21.10352;1009.031;;;;
2019/07/04 08:58:08;;;;;;;4.1;1.3;;;;;;;31.9;21.12891;1009.053;;;;
2019/07/04 09:00:33;;;;;;;4.5;1.1;;;;;;;31.9;21.11621;1009.043;;;;
2019/07/04 09:03:52;;;;;;;3.8;1.3;;;;;;;31.9;21.11621;1008.995;;;;
2019/07/04 09:06:17;;;;;;;2.9;1.1;;;;;;;31.9;21.17773;1008.972;;;;
2019/07/04 09:08:42;;;;;;;3.7;1;;;;;;;31.9;21.19043;1008.986;;;;
2019/07/04 09:11:08;;;;;;;6.8;1.3;;;;;;;31.91;21.24023;1008.934;;;;
2019/07/04 09:13:33;;;;;;;2.2;1;;;;;;;31.92;21.25293;1008.912;;;;
2019/07/04 09:15:58;;;;;;;3;1.3;;;;;;;31.93;21.32715;1008.926;;;;
2019/07/04 09:19:17;;;;;;;3.6;1.5;;;;;;;31.93;21.32617;1008.91;;;;
2019/07/04 09:21:42;;;;;;;5.6;1.5;;;;;;;31.93;21.30176;1008.918;;;;
2019/07/04 09:24:08;;;;;;;7.1;1.4;;;;;;;31.92;21.27734;1008.828;;;;
2019/07/04 09:26:33;;;;;;;5.5;1.2;;;;;;;31.9;21.27637;1008.826;;;;
2019/07/04 09:29:52;;;;;;;4.9;1.2;;;;;;;31.91;21.28906;1008.839;;;;
2019/07/04 09:32:18;;;;;;;3;1;;;;;;;31.91;21.28906;1008.849;;;;
2019/07/04 09:34:43;;;;;;;4;1.5;;;;;;;31.92;21.27734;1008.832;;;;
2019/07/04 09:37:08;;;;;;;3.9;1.2;;;;;;;31.91;21.28906;1008.798;;;;
2019/07/04 09:40:27;;;;;;;6.4;1.5;;;;;;;31.92;21.26465;1008.726;;;;
2019/07/04 09:42:53;;;;;;;5.7;1.4;;;;;;;31.92;21.26465;1008.76;;;;
2019/07/04 09:45:18;;;;;;;5.2;1.5;;;;;;;31.91;21.27734;1008.783;;;;
2019/07/04 09:47:44;;;;;;;4;1.5;;;;;;;31.91;21.26465;1008.753;;;;
2019/07/04 09:50:09;;;;;;;3.3;1.2;;;;;;;31.92;21.26465;1008.74;;;;
2019/07/04 09:52:35;;;;;;;3.7;1.2;;;;;;;31.92;21.27734;1008.811;;;;
2019/07/04 09:53:17;;;;;;;2.7;1.2;;;;;;;31.91;21.27734;1008.782;;;;
2019/07/04 09:55:43;;;;;;;6.5;1.5;;;;;;;31.9;21.26465;1008.778;;;;
2019/07/04 09:59:02;;;;;;;3.8;1;;;;;;;31.91;21.22754;1008.768;;;;
2019/07/04 10:01:27;;;;;;;4.4;1.4;;;;;;;31.9;21.16504;1008.758;;;;
2019/07/04 10:04:46;;;;;;;7.2;1.5;;;;;;;31.88;21.09082;1008.745;;;;
2019/07/04 10:07:12;;;;;;;3.2;1.3;;;;;;;31.87;21.0166;1008.755;;;;
2019/07/04 10:09:37;;;;;;;3.9;1.2;;;;;;;31.86;20.99121;1008.691;;;;
2019/07/04 10:10:14;;;;;;;3.5;1;;;;;;;31.86;21.0166;1008.686;;;;
2019/07/04 10:12:39;;;;;;;6.5;1.3;;;;;;;31.87;20.96777;1008.686;;;;
2019/07/04 10:15:04;;;;;;;3.9;1.2;;;;;;;31.86;20.94238;1008.64;;;;
2019/07/04 10:17:29;;;;;;;5.2;1.3;;;;;;;31.87;20.93066;1008.612;;;;
2019/07/04 10:19:55;;;;;;;2.3;1;;;;;;;31.86;20.91797;1008.562;;;;
2019/07/04 10:22:20;;;;;;;4.5;1.2;;;;;;;31.85;20.94238;1008.593;;;;
2019/07/04 10:24:46;;;;;;;3.7;1.1;;;;;;;31.86;20.95508;1008.56;;;;
2019/07/04 10:27:11;;;;;;;5.8;1.2;;;;;;;31.84;20.97852;1008.57;;;;
2019/07/04 10:29:36;;;;;;;11;1.7;;;;;;;31.83;20.95313;1008.513;;;;
2019/07/04 10:32:01;;;;;;;9.9;1.5;;;;;;;31.83;20.94043;1008.561;;;;
2019/07/04 10:34:27;;;;;;;3.7;1.2;;;;;;;31.82;20.92773;1008.507;;;;
2019/07/04 10:36:52;;;;;;;7.3;1.2;;;;;;;31.81;20.85352;1008.497;;;;
2019/07/04 10:39:17;;;;;;;3.3;1.1;;;;;;;31.81;20.8418;1008.436;;;;
2019/07/04 10:41:43;;;;;;;3.9;1.1;;;;;;;31.81;20.8418;1008.451;;;;
2019/07/04 10:44:08;;;;;;;3.2;1.1;;;;;;;31.8;20.81738;1008.45;;;;
2019/07/04 10:46:34;;;;;;;5.3;1.1;;;;;;;31.81;20.83008;1008.425;;;;
2019/07/04 10:47:11;;;;;;;3.8;1.3;;;;;;;31.81;20.8291;1008.381;;;;
2019/07/04 10:49:36;;;;;;;4.3;1.3;;;;;;;31.81;20.8418;1008.358;;;;
2019/07/04 10:52:02;;;;;;;4.4;1.4;;;;;;;31.79;20.84082;1008.321;;;;
2019/07/04 10:54:27;;;;;;;6.2;1.4;;;;;;;31.79;20.85352;1008.333;;;;
2019/07/04 10:56:52;;;;;;;4;1.3;;;;;;;31.77;20.90137;1008.308;;;;
2019/07/04 11:00:11;;;;;;;3;1;;;;;;;31.78;20.90137;1008.315;;;;
2019/07/04 11:02:37;;;;;;;4.2;1.2;;;;;;;31.77;20.92578;1008.262;;;;
2019/07/04 11:05:02;;;;;;;3.3;1.1;;;;;;;31.77;20.92578;1008.23;;;;
2019/07/04 11:07:27;;;;;;;7.6;1.5;;;;;;;31.76;20.90137;1008.19;;;;
2019/07/04 11:08:17;;;;;;;3.8;1.2;;;;;;;31.75;20.88867;1008.205;;;;
2019/07/04 11:10:42;;;;;;;3.9;1.3;;;;;;;31.74;20.86328;1008.229;;;;
2019/07/04 11:10:51;;;;;;;3.4;1.2;;;;;;;31.74;20.8877;1008.21;;;;
2019/07/04 11:13:17;;;;;;;3.3;1.3;;;;;;;31.74;20.83887;1008.162;;;;
2019/07/04 11:15:42;;;;;;;5.7;1.2;;;;;;;31.73;20.8623;1008.172;;;;
2019/07/04 11:18:08;;;;;;;4.2;1.2;;;;;;;31.72;20.89941;1008.137;;;;
2019/07/04 11:21:27;;;;;;;3.7;1.2;;;;;;;31.71;20.93555;1008.062;;;;
2019/07/04 11:24:46;;;;;;;3.4;1.2;;;;;;;31.7;20.94727;1008.052;;;;
2019/07/04 11:25:16;;;;;;;5.1;1.3;;;;;;;31.71;20.94824;1008.06;;;;
2019/07/04 11:27:42;;;;;;;3.8;1.2;;;;;;;31.7;20.93555;1008.097;;;;
2019/07/04 11:31:00;;;;;;;3;1.2;;;;;;;31.68;20.94629;1008.056;;;;
2019/07/04 11:33:26;;;;;;;3.6;1.3;;;;;;;31.68;20.94629;1008.019;;;;
2019/07/04 11:36:46;;;;;;;3.1;1.2;;;;;;;31.68;20.92188;1007.953;;;;
2019/07/04 11:39:10;;;;;;;5.8;1.5;;;;;;;31.67;20.93359;1007.97;;;;
2019/07/04 11:41:36;;;;;;;5.8;1.2;;;;;;;31.69;20.89746;1007.953;;;;
2019/07/04 11:44:02;;;;;;;2.7;1.3;;;;;;;31.69;20.92188;1007.95;;;;
2019/07/04 11:46:27;;;;;;;4.7;1.2;;;;;;;31.68;20.90918;1007.916;;;;
2019/07/04 11:49:46;;;;;;;3.5;1.2;;;;;;;31.68;20.92188;1007.864;;;;
2019/07/04 11:49:54;;;;;;;3;1.1;;;;;;;31.68;20.92188;1007.866;;;;
2019/07/04 11:52:19;;;;;;;3.5;1.2;;;;;;;31.68;20.93457;1007.889;;;;
2019/07/04 11:54:45;;;;;;;3.4;1.4;;;;;;;31.69;20.95898;1007.886;;;;
2019/07/04 11:57:10;;;;;;;5.6;1.5;;;;;;;31.69;21.00879;1007.814;;;;
2019/07/04 12:00:30;;;;;;;3.7;1.1;;;;;;;31.68;21.05762;1007.747;;;;
2019/07/04 12:00:51;;;;;;;4.8;1.4;;;;;;;31.69;21.04492;1007.752;;;;
2019/07/04 12:03:17;;;;;;;2;1.1;;;;;;;31.69;21.07031;1007.723;;;;
2019/07/04 12:05:42;;;;;;;5.2;1.3;;;;;;;31.69;21.05762;1007.668;;;;
2019/07/04 12:08:07;;;;;;;2.5;1.2;;;;;;;31.67;21.06934;1007.649;;;;
2019/07/04 12:08:27;;;;;;;4.7;1.3;;;;;;;31.68;21.05762;1007.608;;;;
2019/07/04 12:10:53;;;;;;;2.5;1.2;;;;;;;31.68;21.05664;1007.551;;;;
2019/07/04 12:14:12;;;;;;;4;1.5;;;;;;;31.67;21.05664;1007.492;;;;
2019/07/04 12:16:37;;;;;;;4;1.1;;;;;;;31.67;21.06934;1007.445;;;;
2019/07/04 12:19:02;;;;;;;2.2;1.1;;;;;;;31.66;21.10547;1007.436;;;;
2019/07/04 12:22:32;;;;;;;3.1;1.3;;;;;;;31.66;21.1416;1007.408;;;;
2019/07/04 12:24:47;;;;;;;5.4;1.6;;;;;;;31.67;21.1543;1007.354;;;;
2019/07/04 12:27:13;;;;;;;4.7;1.5;;;;;;;31.67;21.19238;1007.343;;;;
2019/07/04 12:29:39;;;;;;;6.3;1.2;;;;;;;31.67;21.27832;1007.363;;;;
2019/07/04 12:32:58;;;;;;;2.8;1.2;;;;;;;31.67;21.29004;1007.305;;;;
2019/07/04 12:33:52;;;;;;;2.8;1.2;;;;;;;31.67;21.38867;1007.318;;;;
2019/07/04 12:36:16;;;;;;;3.4;1.3;;;;;;;31.68;21.33984;1007.248;;;;
2019/07/04 12:39:34;;;;;;;5.8;1;;;;;;;31.68;21.36426;1007.248;;;;
2019/07/04 12:41:59;;;;;;;4;1.1;;;;;;;31.7;21.38965;1007.275;;;;
2019/07/04 12:45:18;;;;;;;3.1;1.3;;;;;;;31.69;21.42676;1007.293;;;;
2019/07/04 12:47:44;;;;;;;4.3;1.1;;;;;;;31.7;21.41406;1007.222;;;;
2019/07/04 12:50:09;;;;;;;2.3;1.1;;;;;;;31.69;21.45117;1007.215;;;;
2019/07/04 12:50:48;;;;;;;3.8;1.3;;;;;;;31.69;21.46289;1007.202;;;;
2019/07/04 12:53:13;;;;;;;3.3;1.4;;;;;;;31.69;21.47559;1007.123;;;;
2019/07/04 12:55:38;;;;;;;2.9;1.1;;;;;;;31.69;21.42676;1007.1;;;;
2019/07/04 12:58:04;;;;;;;4.5;1.2;;;;;;;31.7;21.45117;1007.121;;;;
2019/07/04 13:00:29;;;;;;;3.3;1.3;;;;;;;31.7;21.45117;1007.019;;;;
2019/07/04 13:02:56;;;;;;;5.2;1.4;;;;;;;31.68;21.4873;1007.022;;;;
2019/07/04 13:05:21;;;;;;;4;1.2;;;;;;;31.67;21.51172;1007.003;;;;
2019/07/04 13:07:46;;;;;;;2.6;1.2;;;;;;;31.67;21.52344;1006.979;;;;
2019/07/04 13:11:06;;;;;;;4;1.4;;;;;;;31.7;21.58691;1006.916;;;;
2019/07/04 13:13:31;;;;;;;3.3;1.2;;;;;;;31.71;21.51367;1006.827;;;;
2019/07/04 13:15:56;;;;;;;5.5;1.4;;;;;;;31.72;21.52637;1006.78;;;;
2019/07/04 13:18:22;;;;;;;3.3;1.4;;;;;;;31.71;21.52637;1006.778;;;;
2019/07/04 13:20:47;;;;;;;2.9;1.3;;;;;;;31.72;21.53906;1006.821;;;;
2019/07/04 13:23:12;;;;;;;3.4;1.2;;;;;;;31.74;21.56445;1006.72;;;;
2019/07/04 13:23:37;;;;;;;3.3;1.1;;;;;;;31.76;21.56445;1006.701;;;;
2019/07/04 13:26:03;;;;;;;4;1.3;;;;;;;31.76;21.52734;1006.688;;;;
2019/07/04 13:28:29;;;;;;;4;1.2;;;;;;;31.76;21.51563;1006.618;;;;
2019/07/04 13:30:54;;;;;;;2;1.1;;;;;;;31.77;21.51563;1006.605;;;;
2019/07/04 13:33:19;;;;;;;3.8;1.4;;;;;;;31.77;21.52832;1006.61;;;;
2019/07/04 13:35:44;;;;;;;4.5;1.6;;;;;;;31.78;21.52832;1006.59;;;;
2019/07/04 13:38:09;;;;;;;3.5;1.1;;;;;;;31.77;21.54102;1006.593;;;;
2019/07/04 13:40:35;;;;;;;3;1.4;;;;;;;31.78;21.50391;1006.594;;;;
2019/07/04 13:43:00;;;;;;;3.2;1.4;;;;;;;31.78;21.43066;1006.547;;;;
2019/07/04 13:45:26;;;;;;;3.5;1.4;;;;;;;31.78;21.43066;1006.51;;;;
2019/07/04 13:47:51;;;;;;;3.6;1.4;;;;;;;31.76;21.44141;1006.462;;;;
2019/07/04 13:51:10;;;;;;;7.1;1.5;;;;;;;31.76;21.61328;1006.413;;;;
2019/07/04 13:53:35;;;;;;;4.4;1.3;;;;;;;31.75;21.52734;1006.34;;;;
2019/07/04 13:56:54;;;;;;;2.5;1.2;;;;;;;31.76;21.51563;1006.357;;;;
2019/07/04 13:59:19;;;;;;;4.7;1.2;;;;;;;31.76;21.50293;1006.259;;;;
2019/07/04 14:01:45;;;;;;;4.3;1.4;;;;;;;31.76;21.50391;1006.224;;;;
2019/07/04 14:05:04;;;;;;;3.2;1.4;;;;;;;31.78;21.50391;1006.216;;;;
2019/07/04 14:05:47;;;;;;;4.5;1.4;;;;;;;31.78;21.49219;1006.257;;;;
2019/07/04 14:08:12;;;;;;;2.7;1.1;;;;;;;31.78;21.33203;1006.193;;;;
2019/07/04 14:10:37;;;;;;;2.2;1.1;;;;;;;31.78;21.41797;1006.151;;;;
2019/07/04 14:13:03;;;;;;;2;1.1;;;;;;;31.79;21.43066;1006.143;;;;